sensor_id;sensor_type;location;lat;lon;timestamp;P1;durP1;ratioP1;P2;durP2;ratioP2
18879;SDS011;9572;52.378;13.404;2023-06-14T00:00:59;2.15;;;1.83;;
18879;SDS011;9572;52.378;13.404;2023-06-14T00:03:28;2.07;;;1.90;;
18879;SDS011;9572;52.378;13.404;2023-06-14T00:05:57;1.93;;;1.73;;
18879;SDS011;9572;52.378;13.404;2023-06-14T00:08:25;3.05;;;2.17;;
18879;SDS011;9572;52.378;13.404;2023-06-14T00:10:52;2.03;;;1.83;;
18879;SDS011;9572;52.378;13.404;2023-06-14T00:13:19;2.17;;;1.98;;
18879;SDS011;9572;52.378;13.404;2023-06-14T00:15:46;2.17;;;1.70;;
18879;SDS011;9572;52.378;13.404;2023-06-14T00:18:13;2.23;;;1.83;;
18879;SDS011;9572;52.378;13.404;2023-06-14T00:20:41;1.90;;;1.80;;
18879;SDS011;9572;52.378;13.404;2023-06-14T00:23:08;2.40;;;1.90;;
18879;SDS011;9572;52.378;13.404;2023-06-14T00:25:36;2.90;;;2.03;;
18879;SDS011;9572;52.378;13.404;2023-06-14T00:28:03;2.27;;;1.80;;
18879;SDS011;9572;52.378;13.404;2023-06-14T00:30:30;2.87;;;1.80;;
18879;SDS011;9572;52.378;13.404;2023-06-14T00:33:01;3.00;;;2.07;;
18879;SDS011;9572;52.378;13.404;2023-06-14T00:35:29;4.33;;;2.10;;
18879;SDS011;9572;52.378;13.404;2023-06-14T00:37:56;4.20;;;2.20;;
18879;SDS011;9572;52.378;13.404;2023-06-14T00:40:23;5.40;;;2.30;;
18879;SDS011;9572;52.378;13.404;2023-06-14T00:42:52;2.13;;;1.93;;
18879;SDS011;9572;52.378;13.404;2023-06-14T00:45:19;3.33;;;2.20;;
18879;SDS011;9572;52.378;13.404;2023-06-14T00:47:46;2.73;;;2.20;;
18879;SDS011;9572;52.378;13.404;2023-06-14T00:50:17;2.70;;;2.17;;
18879;SDS011;9572;52.378;13.404;2023-06-14T00:52:45;2.27;;;2.00;;
18879;SDS011;9572;52.378;13.404;2023-06-14T00:55:14;5.27;;;2.50;;
18879;SDS011;9572;52.378;13.404;2023-06-14T00:57:41;2.42;;;2.22;;
18879;SDS011;9572;52.378;13.404;2023-06-14T01:00:10;5.07;;;2.10;;
18879;SDS011;9572;52.378;13.404;2023-06-14T01:02:38;5.00;;;2.27;;
18879;SDS011;9572;52.378;13.404;2023-06-14T01:05:05;2.93;;;2.20;;
18879;SDS011;9572;52.378;13.404;2023-06-14T01:07:39;1.97;;;1.87;;
18879;SDS011;9572;52.378;13.404;2023-06-14T01:10:16;3.60;;;2.37;;
18879;SDS011;9572;52.378;13.404;2023-06-14T01:12:58;4.15;;;2.20;;
18879;SDS011;9572;52.378;13.404;2023-06-14T01:15:32;2.40;;;2.20;;
18879;SDS011;9572;52.378;13.404;2023-06-14T01:18:00;3.50;;;2.40;;
18879;SDS011;9572;52.378;13.404;2023-06-14T01:20:29;3.50;;;2.40;;
18879;SDS011;9572;52.378;13.404;2023-06-14T01:22:59;4.43;;;2.40;;
18879;SDS011;9572;52.378;13.404;2023-06-14T01:25:26;5.37;;;2.43;;
18879;SDS011;9572;52.378;13.404;2023-06-14T01:27:53;3.97;;;2.50;;
18879;SDS011;9572;52.378;13.404;2023-06-14T01:30:24;9.83;;;2.80;;
18879;SDS011;9572;52.378;13.404;2023-06-14T01:32:52;4.07;;;2.40;;
18879;SDS011;9572;52.378;13.404;2023-06-14T01:35:20;6.70;;;2.60;;
18879;SDS011;9572;52.378;13.404;2023-06-14T01:37:48;9.30;;;2.80;;
18879;SDS011;9572;52.378;13.404;2023-06-14T01:40:17;3.87;;;2.73;;
18879;SDS011;9572;52.378;13.404;2023-06-14T01:42:45;5.93;;;3.00;;
18879;SDS011;9572;52.378;13.404;2023-06-14T01:45:14;3.27;;;2.50;;
18879;SDS011;9572;52.378;13.404;2023-06-14T01:47:41;3.63;;;2.73;;
18879;SDS011;9572;52.378;13.404;2023-06-14T01:50:10;4.30;;;2.70;;
18879;SDS011;9572;52.378;13.404;2023-06-14T01:52:37;3.83;;;2.50;;
18879;SDS011;9572;52.378;13.404;2023-06-14T01:55:05;4.67;;;2.83;;
18879;SDS011;9572;52.378;13.404;2023-06-14T01:57:34;4.77;;;2.60;;
18879;SDS011;9572;52.378;13.404;2023-06-14T02:00:01;5.43;;;2.90;;
18879;SDS011;9572;52.378;13.404;2023-06-14T02:02:28;5.27;;;2.50;;
18879;SDS011;9572;52.378;13.404;2023-06-14T02:04:55;5.43;;;3.17;;
18879;SDS011;9572;52.378;13.404;2023-06-14T02:07:23;4.57;;;2.33;;
18879;SDS011;9572;52.378;13.404;2023-06-14T02:09:50;3.87;;;2.83;;
18879;SDS011;9572;52.378;13.404;2023-06-14T02:12:17;4.20;;;2.80;;
18879;SDS011;9572;52.378;13.404;2023-06-14T02:14:46;5.10;;;3.10;;
18879;SDS011;9572;52.378;13.404;2023-06-14T02:17:13;4.00;;;3.20;;
18879;SDS011;9572;52.378;13.404;2023-06-14T02:19:41;4.43;;;3.33;;
18879;SDS011;9572;52.378;13.404;2023-06-14T02:22:09;4.47;;;3.07;;
18879;SDS011;9572;52.378;13.404;2023-06-14T02:24:35;5.87;;;3.43;;
18879;SDS011;9572;52.378;13.404;2023-06-14T02:27:02;5.73;;;3.23;;
18879;SDS011;9572;52.378;13.404;2023-06-14T02:29:30;6.63;;;2.93;;
18879;SDS011;9572;52.378;13.404;2023-06-14T02:31:58;4.70;;;3.50;;
18879;SDS011;9572;52.378;13.404;2023-06-14T02:34:25;5.73;;;3.20;;
18879;SDS011;9572;52.378;13.404;2023-06-14T02:36:52;3.47;;;3.17;;
18879;SDS011;9572;52.378;13.404;2023-06-14T02:39:19;6.73;;;3.40;;
18879;SDS011;9572;52.378;13.404;2023-06-14T02:41:48;4.90;;;3.67;;
18879;SDS011;9572;52.378;13.404;2023-06-14T02:44:16;5.40;;;3.30;;
18879;SDS011;9572;52.378;13.404;2023-06-14T02:46:44;4.37;;;3.93;;
18879;SDS011;9572;52.378;13.404;2023-06-14T02:49:13;4.30;;;3.43;;
18879;SDS011;9572;52.378;13.404;2023-06-14T02:51:40;6.97;;;3.67;;
18879;SDS011;9572;52.378;13.404;2023-06-14T02:54:07;3.60;;;3.30;;
18879;SDS011;9572;52.378;13.404;2023-06-14T02:56:34;7.60;;;4.00;;
18879;SDS011;9572;52.378;13.404;2023-06-14T02:59:02;5.53;;;3.43;;
18879;SDS011;9572;52.378;13.404;2023-06-14T03:01:28;5.40;;;3.50;;
18879;SDS011;9572;52.378;13.404;2023-06-14T03:03:59;7.60;;;3.97;;
18879;SDS011;9572;52.378;13.404;2023-06-14T03:06:28;7.10;;;3.90;;
18879;SDS011;9572;52.378;13.404;2023-06-14T03:08:55;5.50;;;3.73;;
18879;SDS011;9572;52.378;13.404;2023-06-14T03:11:25;6.23;;;4.23;;
18879;SDS011;9572;52.378;13.404;2023-06-14T03:13:52;4.77;;;4.10;;
18879;SDS011;9572;52.378;13.404;2023-06-14T03:16:20;8.27;;;4.07;;
18879;SDS011;9572;52.378;13.404;2023-06-14T03:18:49;4.73;;;3.80;;
18879;SDS011;9572;52.378;13.404;2023-06-14T03:21:16;5.60;;;3.60;;
18879;SDS011;9572;52.378;13.404;2023-06-14T03:23:45;10.57;;;4.63;;
18879;SDS011;9572;52.378;13.404;2023-06-14T03:26:12;5.13;;;4.10;;
18879;SDS011;9572;52.378;13.404;2023-06-14T03:28:39;7.10;;;4.00;;
18879;SDS011;9572;52.378;13.404;2023-06-14T03:31:06;7.77;;;4.47;;
18879;SDS011;9572;52.378;13.404;2023-06-14T03:33:34;5.77;;;4.50;;
18879;SDS011;9572;52.378;13.404;2023-06-14T03:36:01;6.27;;;4.27;;
18879;SDS011;9572;52.378;13.404;2023-06-14T03:38:28;7.87;;;4.17;;
18879;SDS011;9572;52.378;13.404;2023-06-14T03:40:57;10.23;;;4.73;;
18879;SDS011;9572;52.378;13.404;2023-06-14T03:43:24;5.10;;;4.50;;
18879;SDS011;9572;52.378;13.404;2023-06-14T03:45:51;10.27;;;4.37;;
18879;SDS011;9572;52.378;13.404;2023-06-14T03:48:18;5.63;;;4.40;;
18879;SDS011;9572;52.378;13.404;2023-06-14T03:50:45;6.30;;;4.70;;
18879;SDS011;9572;52.378;13.404;2023-06-14T03:53:12;4.53;;;4.00;;
18879;SDS011;9572;52.378;13.404;2023-06-14T03:55:39;9.33;;;4.80;;
18879;SDS011;9572;52.378;13.404;2023-06-14T03:58:08;7.23;;;4.57;;
18879;SDS011;9572;52.378;13.404;2023-06-14T04:00:35;6.13;;;4.27;;
18879;SDS011;9572;52.378;13.404;2023-06-14T04:03:03;7.50;;;4.20;;
18879;SDS011;9572;52.378;13.404;2023-06-14T04:05:30;5.07;;;4.13;;
18879;SDS011;9572;52.378;13.404;2023-06-14T04:07:57;8.70;;;4.60;;
18879;SDS011;9572;52.378;13.404;2023-06-14T04:10:26;4.70;;;3.97;;
18879;SDS011;9572;52.378;13.404;2023-06-14T04:12:53;4.80;;;4.23;;
18879;SDS011;9572;52.378;13.404;2023-06-14T04:15:21;7.23;;;4.40;;
18879;SDS011;9572;52.378;13.404;2023-06-14T04:17:48;6.10;;;4.90;;
18879;SDS011;9572;52.378;13.404;2023-06-14T04:20:15;7.03;;;4.00;;
18879;SDS011;9572;52.378;13.404;2023-06-14T04:22:43;7.73;;;4.83;;
18879;SDS011;9572;52.378;13.404;2023-06-14T04:25:10;5.77;;;4.50;;
18879;SDS011;9572;52.378;13.404;2023-06-14T04:27:37;9.17;;;5.33;;
18879;SDS011;9572;52.378;13.404;2023-06-14T04:30:05;6.40;;;5.43;;
18879;SDS011;9572;52.378;13.404;2023-06-14T04:32:34;13.40;;;4.83;;
18879;SDS011;9572;52.378;13.404;2023-06-14T04:35:04;5.10;;;4.20;;
18879;SDS011;9572;52.378;13.404;2023-06-14T04:37:32;7.87;;;5.60;;
18879;SDS011;9572;52.378;13.404;2023-06-14T04:39:59;7.63;;;4.90;;
18879;SDS011;9572;52.378;13.404;2023-06-14T04:42:26;6.60;;;5.27;;
18879;SDS011;9572;52.378;13.404;2023-06-14T04:44:56;5.23;;;4.30;;
18879;SDS011;9572;52.378;13.404;2023-06-14T04:47:23;9.82;;;5.85;;
18879;SDS011;9572;52.378;13.404;2023-06-14T04:49:56;9.73;;;6.43;;
18879;SDS011;9572;52.378;13.404;2023-06-14T04:52:23;8.10;;;5.60;;
18879;SDS011;9572;52.378;13.404;2023-06-14T04:54:51;10.30;;;5.07;;
18879;SDS011;9572;52.378;13.404;2023-06-14T04:57:19;6.53;;;5.30;;
18879;SDS011;9572;52.378;13.404;2023-06-14T04:59:47;9.07;;;6.38;;
18879;SDS011;9572;52.378;13.404;2023-06-14T05:02:19;8.10;;;5.40;;
18879;SDS011;9572;52.378;13.404;2023-06-14T05:04:47;7.82;;;5.28;;
18879;SDS011;9572;52.378;13.404;2023-06-14T05:07:15;7.85;;;5.40;;
18879;SDS011;9572;52.378;13.404;2023-06-14T05:09:42;6.40;;;4.90;;
18879;SDS011;9572;52.378;13.404;2023-06-14T05:12:11;7.63;;;6.05;;
18879;SDS011;9572;52.378;13.404;2023-06-14T05:14:38;5.88;;;5.38;;
18879;SDS011;9572;52.378;13.404;2023-06-14T05:17:05;34.33;;;8.77;;
18879;SDS011;9572;52.378;13.404;2023-06-14T05:19:32;19.08;;;6.18;;
18879;SDS011;9572;52.378;13.404;2023-06-14T05:22:00;10.32;;;5.28;;
18879;SDS011;9572;52.378;13.404;2023-06-14T05:24:29;8.02;;;5.40;;
18879;SDS011;9572;52.378;13.404;2023-06-14T05:26:57;8.70;;;5.30;;
18879;SDS011;9572;52.378;13.404;2023-06-14T05:29:24;5.88;;;4.68;;
18879;SDS011;9572;52.378;13.404;2023-06-14T05:31:52;5.43;;;4.68;;
18879;SDS011;9572;52.378;13.404;2023-06-14T05:34:19;5.72;;;5.07;;
18879;SDS011;9572;52.378;13.404;2023-06-14T05:36:46;7.35;;;4.60;;
18879;SDS011;9572;52.378;13.404;2023-06-14T05:39:13;8.57;;;4.88;;
18879;SDS011;9572;52.378;13.404;2023-06-14T05:41:44;7.88;;;5.28;;
18879;SDS011;9572;52.378;13.404;2023-06-14T05:44:11;11.10;;;5.43;;
18879;SDS011;9572;52.378;13.404;2023-06-14T05:46:38;9.45;;;5.82;;
18879;SDS011;9572;52.378;13.404;2023-06-14T05:49:06;8.98;;;5.22;;
18879;SDS011;9572;52.378;13.404;2023-06-14T05:51:32;10.35;;;5.80;;
18879;SDS011;9572;52.378;13.404;2023-06-14T05:54:00;7.05;;;5.00;;
18879;SDS011;9572;52.378;13.404;2023-06-14T05:56:27;7.95;;;5.57;;
18879;SDS011;9572;52.378;13.404;2023-06-14T05:58:56;5.90;;;5.30;;
18879;SDS011;9572;52.378;13.404;2023-06-14T06:01:23;8.88;;;6.05;;
18879;SDS011;9572;52.378;13.404;2023-06-14T06:03:50;6.75;;;4.50;;
18879;SDS011;9572;52.378;13.404;2023-06-14T06:06:17;9.93;;;5.30;;
18879;SDS011;9572;52.378;13.404;2023-06-14T06:08:44;9.50;;;5.38;;
18879;SDS011;9572;52.378;13.404;2023-06-14T06:11:11;7.28;;;5.38;;
18879;SDS011;9572;52.378;13.404;2023-06-14T06:13:40;6.97;;;4.85;;
18879;SDS011;9572;52.378;13.404;2023-06-14T06:16:08;7.95;;;5.10;;
18879;SDS011;9572;52.378;13.404;2023-06-14T06:18:35;7.40;;;4.40;;
18879;SDS011;9572;52.378;13.404;2023-06-14T06:21:03;6.32;;;4.90;;
18879;SDS011;9572;52.378;13.404;2023-06-14T06:23:30;11.32;;;5.15;;
18879;SDS011;9572;52.378;13.404;2023-06-14T06:25:57;7.75;;;5.35;;
18879;SDS011;9572;52.378;13.404;2023-06-14T06:28:24;17.45;;;5.97;;
18879;SDS011;9572;52.378;13.404;2023-06-14T06:30:51;11.70;;;6.38;;
18879;SDS011;9572;52.378;13.404;2023-06-14T06:33:19;9.27;;;5.13;;
18879;SDS011;9572;52.378;13.404;2023-06-14T06:35:47;11.43;;;5.68;;
18879;SDS011;9572;52.378;13.404;2023-06-14T06:38:14;14.55;;;5.55;;
18879;SDS011;9572;52.378;13.404;2023-06-14T06:40:43;16.55;;;6.55;;
18879;SDS011;9572;52.378;13.404;2023-06-14T06:43:10;16.90;;;5.95;;
18879;SDS011;9572;52.378;13.404;2023-06-14T06:45:38;7.90;;;5.22;;
18879;SDS011;9572;52.378;13.404;2023-06-14T06:48:05;15.05;;;5.90;;
18879;SDS011;9572;52.378;13.404;2023-06-14T06:50:36;9.55;;;5.13;;
18879;SDS011;9572;52.378;13.404;2023-06-14T06:53:02;6.20;;;5.28;;
18879;SDS011;9572;52.378;13.404;2023-06-14T06:55:30;5.65;;;5.10;;
18879;SDS011;9572;52.378;13.404;2023-06-14T06:57:57;7.88;;;4.80;;
18879;SDS011;9572;52.378;13.404;2023-06-14T07:00:25;9.00;;;5.22;;
18879;SDS011;9572;52.378;13.404;2023-06-14T07:02:52;17.75;;;5.80;;
18879;SDS011;9572;52.378;13.404;2023-06-14T07:05:20;7.78;;;5.25;;
18879;SDS011;9572;52.378;13.404;2023-06-14T07:07:48;6.82;;;5.50;;
18879;SDS011;9572;52.378;13.404;2023-06-14T07:10:15;8.88;;;5.03;;
18879;SDS011;9572;52.378;13.404;2023-06-14T07:12:42;6.30;;;4.60;;
18879;SDS011;9572;52.378;13.404;2023-06-14T07:15:10;6.60;;;5.07;;
18879;SDS011;9572;52.378;13.404;2023-06-14T07:17:37;6.85;;;4.80;;
18879;SDS011;9572;52.378;13.404;2023-06-14T07:20:06;11.80;;;5.43;;
18879;SDS011;9572;52.378;13.404;2023-06-14T07:22:36;6.13;;;4.70;;
18879;SDS011;9572;52.378;13.404;2023-06-14T07:25:05;9.93;;;4.85;;
18879;SDS011;9572;52.378;13.404;2023-06-14T07:27:33;10.88;;;5.50;;
18879;SDS011;9572;52.378;13.404;2023-06-14T07:30:00;7.53;;;4.57;;
18879;SDS011;9572;52.378;13.404;2023-06-14T07:32:27;5.80;;;4.00;;
18879;SDS011;9572;52.378;13.404;2023-06-14T07:34:53;7.65;;;4.30;;
18879;SDS011;9572;52.378;13.404;2023-06-14T07:37:20;9.48;;;4.50;;
18879;SDS011;9572;52.378;13.404;2023-06-14T07:39:47;6.85;;;4.57;;
18879;SDS011;9572;52.378;13.404;2023-06-14T07:42:15;4.38;;;3.97;;
18879;SDS011;9572;52.378;13.404;2023-06-14T07:44:42;12.02;;;4.75;;
18879;SDS011;9572;52.378;13.404;2023-06-14T07:47:10;9.95;;;4.70;;
18879;SDS011;9572;52.378;13.404;2023-06-14T07:49:36;5.32;;;3.80;;
18879;SDS011;9572;52.378;13.404;2023-06-14T07:52:04;7.18;;;4.40;;
18879;SDS011;9572;52.378;13.404;2023-06-14T07:54:31;6.07;;;4.40;;
18879;SDS011;9572;52.378;13.404;2023-06-14T07:56:58;9.32;;;4.40;;
18879;SDS011;9572;52.378;13.404;2023-06-14T07:59:27;7.57;;;3.78;;
18879;SDS011;9572;52.378;13.404;2023-06-14T08:01:54;5.80;;;3.92;;
18879;SDS011;9572;52.378;13.404;2023-06-14T08:04:21;8.55;;;4.32;;
18879;SDS011;9572;52.378;13.404;2023-06-14T08:06:48;7.80;;;4.10;;
18879;SDS011;9572;52.378;13.404;2023-06-14T08:09:15;5.90;;;4.07;;
18879;SDS011;9572;52.378;13.404;2023-06-14T08:11:42;6.43;;;3.70;;
18879;SDS011;9572;52.378;13.404;2023-06-14T08:14:09;5.78;;;3.80;;
18879;SDS011;9572;52.378;13.404;2023-06-14T08:16:37;7.30;;;4.18;;
18879;SDS011;9572;52.378;13.404;2023-06-14T08:19:04;5.78;;;3.20;;
18879;SDS011;9572;52.378;13.404;2023-06-14T08:21:31;7.35;;;3.33;;
18879;SDS011;9572;52.378;13.404;2023-06-14T08:23:58;4.40;;;3.42;;
18879;SDS011;9572;52.378;13.404;2023-06-14T08:26:25;4.65;;;3.42;;
18879;SDS011;9572;52.378;13.404;2023-06-14T08:28:53;7.70;;;3.25;;
18879;SDS011;9572;52.378;13.404;2023-06-14T08:31:21;9.60;;;5.00;;
18879;SDS011;9572;52.378;13.404;2023-06-14T08:33:50;4.70;;;3.40;;
18879;SDS011;9572;52.378;13.404;2023-06-14T08:36:17;4.45;;;3.20;;
18879;SDS011;9572;52.378;13.404;2023-06-14T08:38:43;8.20;;;3.22;;
18879;SDS011;9572;52.378;13.404;2023-06-14T08:41:11;3.40;;;2.92;;
18879;SDS011;9572;52.378;13.404;2023-06-14T08:43:39;5.47;;;3.20;;
18879;SDS011;9572;52.378;13.404;2023-06-14T08:46:06;8.82;;;3.60;;
18879;SDS011;9572;52.378;13.404;2023-06-14T08:48:37;12.70;;;3.35;;
18879;SDS011;9572;52.378;13.404;2023-06-14T08:51:06;5.68;;;3.20;;
18879;SDS011;9572;52.378;13.404;2023-06-14T08:53:36;7.70;;;3.40;;
18879;SDS011;9572;52.378;13.404;2023-06-14T08:56:07;7.72;;;2.95;;
18879;SDS011;9572;52.378;13.404;2023-06-14T08:58:38;5.30;;;2.92;;
18879;SDS011;9572;52.378;13.404;2023-06-14T09:01:10;6.50;;;3.20;;
18879;SDS011;9572;52.378;13.404;2023-06-14T09:03:39;5.20;;;2.97;;
18879;SDS011;9572;52.378;13.404;2023-06-14T09:06:08;6.60;;;3.40;;
18879;SDS011;9572;52.378;13.404;2023-06-14T09:08:38;4.68;;;2.95;;
18879;SDS011;9572;52.378;13.404;2023-06-14T09:11:08;6.70;;;2.30;;
18879;SDS011;9572;52.378;13.404;2023-06-14T09:13:36;5.18;;;2.70;;
18879;SDS011;9572;52.378;13.404;2023-06-14T09:16:03;8.20;;;2.60;;
18879;SDS011;9572;52.378;13.404;2023-06-14T09:18:34;6.70;;;2.50;;
18879;SDS011;9572;52.378;13.404;2023-06-14T09:21:02;6.35;;;2.50;;
18879;SDS011;9572;52.378;13.404;2023-06-14T09:23:30;5.25;;;2.45;;
18879;SDS011;9572;52.378;13.404;2023-06-14T09:26:06;7.70;;;3.03;;
18879;SDS011;9572;52.378;13.404;2023-06-14T09:28:33;3.03;;;2.70;;
18879;SDS011;9572;52.378;13.404;2023-06-14T09:31:01;3.63;;;2.50;;
18879;SDS011;9572;52.378;13.404;2023-06-14T09:33:28;6.63;;;3.03;;
18879;SDS011;9572;52.378;13.404;2023-06-14T09:35:56;3.20;;;2.50;;
18879;SDS011;9572;52.378;13.404;2023-06-14T09:38:23;7.18;;;2.40;;
18879;SDS011;9572;52.378;13.404;2023-06-14T09:40:52;9.82;;;2.78;;
18879;SDS011;9572;52.378;13.404;2023-06-14T09:43:21;4.03;;;2.60;;
18879;SDS011;9572;52.378;13.404;2023-06-14T09:45:49;12.02;;;2.83;;
18879;SDS011;9572;52.378;13.404;2023-06-14T09:48:17;8.10;;;3.00;;
18879;SDS011;9572;52.378;13.404;2023-06-14T09:50:44;4.75;;;2.75;;
18879;SDS011;9572;52.378;13.404;2023-06-14T09:53:13;3.58;;;2.90;;
18879;SDS011;9572;52.378;13.404;2023-06-14T09:55:41;7.07;;;3.20;;
18879;SDS011;9572;52.378;13.404;2023-06-14T09:58:10;7.85;;;3.17;;
18879;SDS011;9572;52.378;13.404;2023-06-14T10:00:40;8.20;;;2.58;;
18879;SDS011;9572;52.378;13.404;2023-06-14T10:03:11;11.88;;;3.65;;
18879;SDS011;9572;52.378;13.404;2023-06-14T10:05:40;7.60;;;3.10;;
18879;SDS011;9572;52.378;13.404;2023-06-14T10:08:10;7.25;;;3.03;;
18879;SDS011;9572;52.378;13.404;2023-06-14T10:10:40;7.30;;;2.92;;
18879;SDS011;9572;52.378;13.404;2023-06-14T10:13:10;4.95;;;3.20;;
18879;SDS011;9572;52.378;13.404;2023-06-14T10:15:38;5.53;;;3.22;;
18879;SDS011;9572;52.378;13.404;2023-06-14T10:18:14;4.93;;;2.63;;
18879;SDS011;9572;52.378;13.404;2023-06-14T10:20:49;5.85;;;2.75;;
18879;SDS011;9572;52.378;13.404;2023-06-14T10:23:22;6.90;;;3.30;;
18879;SDS011;9572;52.378;13.404;2023-06-14T10:25:50;9.27;;;2.78;;
18879;SDS011;9572;52.378;13.404;2023-06-14T10:28:23;5.57;;;3.00;;
18879;SDS011;9572;52.378;13.404;2023-06-14T10:31:04;4.65;;;3.10;;
18879;SDS011;9572;52.378;13.404;2023-06-14T10:33:32;6.30;;;2.80;;
18879;SDS011;9572;52.378;13.404;2023-06-14T10:38:59;10.35;;;3.20;;
18879;SDS011;9572;52.378;13.404;2023-06-14T10:41:27;5.93;;;2.75;;
18879;SDS011;9572;52.378;13.404;2023-06-14T10:47:07;8.70;;;2.97;;
18879;SDS011;9572;52.378;13.404;2023-06-14T10:49:36;3.47;;;2.40;;
18879;SDS011;9572;52.378;13.404;2023-06-14T10:52:07;6.90;;;2.95;;
18879;SDS011;9572;52.378;13.404;2023-06-14T10:57:29;7.05;;;3.15;;
18879;SDS011;9572;52.378;13.404;2023-06-14T10:59:58;6.88;;;3.33;;
18879;SDS011;9572;52.378;13.404;2023-06-14T11:05:42;5.68;;;3.10;;
18879;SDS011;9572;52.378;13.404;2023-06-14T11:11:12;5.60;;;2.63;;
18879;SDS011;9572;52.378;13.404;2023-06-14T11:13:41;4.47;;;3.03;;
18879;SDS011;9572;52.378;13.404;2023-06-14T11:16:11;6.18;;;2.95;;
18879;SDS011;9572;52.378;13.404;2023-06-14T11:18:38;5.50;;;2.95;;
18879;SDS011;9572;52.378;13.404;2023-06-14T11:21:05;8.57;;;3.17;;
18879;SDS011;9572;52.378;13.404;2023-06-14T11:23:33;6.35;;;2.90;;
18879;SDS011;9572;52.378;13.404;2023-06-14T11:26:00;4.72;;;3.03;;
18879;SDS011;9572;52.378;13.404;2023-06-14T11:28:35;9.68;;;3.60;;
18879;SDS011;9572;52.378;13.404;2023-06-14T11:31:03;4.82;;;2.88;;
18879;SDS011;9572;52.378;13.404;2023-06-14T11:33:32;10.93;;;3.15;;
18879;SDS011;9572;52.378;13.404;2023-06-14T11:36:01;9.07;;;2.83;;
18879;SDS011;9572;52.378;13.404;2023-06-14T11:38:28;5.53;;;2.83;;
18879;SDS011;9572;52.378;13.404;2023-06-14T11:40:58;3.20;;;2.72;;
18879;SDS011;9572;52.378;13.404;2023-06-14T11:43:26;6.60;;;2.67;;
18879;SDS011;9572;52.378;13.404;2023-06-14T11:45:54;6.57;;;2.65;;
18879;SDS011;9572;52.378;13.404;2023-06-14T11:48:21;3.67;;;2.50;;
18879;SDS011;9572;52.378;13.404;2023-06-14T11:50:50;7.55;;;2.65;;
18879;SDS011;9572;52.378;13.404;2023-06-14T11:53:17;12.35;;;3.30;;
18879;SDS011;9572;52.378;13.404;2023-06-14T11:55:44;8.88;;;3.00;;
18879;SDS011;9572;52.378;13.404;2023-06-14T11:58:12;10.00;;;3.00;;
18879;SDS011;9572;52.378;13.404;2023-06-14T12:00:40;9.57;;;2.90;;
18879;SDS011;9572;52.378;13.404;2023-06-14T12:03:07;6.95;;;2.95;;
18879;SDS011;9572;52.378;13.404;2023-06-14T12:05:34;16.10;;;10.98;;
18879;SDS011;9572;52.378;13.404;2023-06-14T12:08:03;9.05;;;5.60;;
18879;SDS011;9572;52.378;13.404;2023-06-14T12:10:39;4.10;;;3.22;;
18879;SDS011;9572;52.378;13.404;2023-06-14T12:13:09;8.70;;;3.08;;
18879;SDS011;9572;52.378;13.404;2023-06-14T12:15:36;5.47;;;2.90;;
18879;SDS011;9572;52.378;13.404;2023-06-14T12:18:05;6.18;;;3.17;;
18879;SDS011;9572;52.378;13.404;2023-06-14T12:20:33;5.82;;;3.00;;
18879;SDS011;9572;52.378;13.404;2023-06-14T12:23:03;6.93;;;3.10;;
18879;SDS011;9572;52.378;13.404;2023-06-14T12:25:31;7.95;;;2.97;;
18879;SDS011;9572;52.378;13.404;2023-06-14T12:27:59;5.28;;;2.92;;
18879;SDS011;9572;52.378;13.404;2023-06-14T12:30:31;3.40;;;2.72;;
18879;SDS011;9572;52.378;13.404;2023-06-14T12:32:58;4.40;;;2.78;;
18879;SDS011;9572;52.378;13.404;2023-06-14T12:35:25;6.30;;;3.00;;
18879;SDS011;9572;52.378;13.404;2023-06-14T12:37:52;5.07;;;2.67;;
18879;SDS011;9572;52.378;13.404;2023-06-14T12:40:20;3.38;;;2.42;;
18879;SDS011;9572;52.378;13.404;2023-06-14T12:42:47;7.35;;;3.25;;
18879;SDS011;9572;52.378;13.404;2023-06-14T12:45:14;8.52;;;3.00;;
18879;SDS011;9572;52.378;13.404;2023-06-14T12:47:41;7.30;;;2.90;;
18879;SDS011;9572;52.378;13.404;2023-06-14T12:50:08;6.68;;;2.65;;
18879;SDS011;9572;52.378;13.404;2023-06-14T12:52:35;5.82;;;2.75;;
18879;SDS011;9572;52.378;13.404;2023-06-14T12:55:02;6.28;;;3.00;;
18879;SDS011;9572;52.378;13.404;2023-06-14T12:57:31;11.05;;;3.10;;
18879;SDS011;9572;52.378;13.404;2023-06-14T13:00:00;5.47;;;2.67;;
18879;SDS011;9572;52.378;13.404;2023-06-14T13:02:27;9.32;;;2.58;;
18879;SDS011;9572;52.378;13.404;2023-06-14T13:04:54;5.13;;;2.75;;
18879;SDS011;9572;52.378;13.404;2023-06-14T13:07:24;6.35;;;2.60;;
18879;SDS011;9572;52.378;13.404;2023-06-14T13:09:51;3.47;;;2.70;;
18879;SDS011;9572;52.378;13.404;2023-06-14T13:12:18;5.25;;;2.70;;
18879;SDS011;9572;52.378;13.404;2023-06-14T13:14:46;7.95;;;2.72;;
18879;SDS011;9572;52.378;13.404;2023-06-14T13:17:13;7.13;;;3.03;;
18879;SDS011;9572;52.378;13.404;2023-06-14T13:19:40;6.43;;;3.08;;
18879;SDS011;9572;52.378;13.404;2023-06-14T13:22:07;14.82;;;2.97;;
18879;SDS011;9572;52.378;13.404;2023-06-14T13:24:34;5.18;;;2.72;;
18879;SDS011;9572;52.378;13.404;2023-06-14T13:27:01;6.55;;;2.55;;
18879;SDS011;9572;52.378;13.404;2023-06-14T13:29:28;6.70;;;2.75;;
18879;SDS011;9572;52.378;13.404;2023-06-14T13:31:57;6.68;;;3.25;;
18879;SDS011;9572;52.378;13.404;2023-06-14T13:34:25;6.68;;;2.83;;
18879;SDS011;9572;52.378;13.404;2023-06-14T13:36:51;11.80;;;3.03;;
18879;SDS011;9572;52.378;13.404;2023-06-14T13:39:18;5.70;;;2.83;;
18879;SDS011;9572;52.378;13.404;2023-06-14T13:41:45;5.47;;;2.92;;
18879;SDS011;9572;52.378;13.404;2023-06-14T13:44:12;9.32;;;2.72;;
18879;SDS011;9572;52.378;13.404;2023-06-14T13:46:41;8.65;;;2.83;;
18879;SDS011;9572;52.378;13.404;2023-06-14T13:49:10;6.45;;;2.78;;
18879;SDS011;9572;52.378;13.404;2023-06-14T13:51:37;6.85;;;2.90;;
18879;SDS011;9572;52.378;13.404;2023-06-14T13:54:04;7.07;;;3.00;;
18879;SDS011;9572;52.378;13.404;2023-06-14T13:56:31;11.30;;;2.85;;
18879;SDS011;9572;52.378;13.404;2023-06-14T13:58:58;7.30;;;2.80;;
18879;SDS011;9572;52.378;13.404;2023-06-14T14:01:26;10.35;;;2.70;;
18879;SDS011;9572;52.378;13.404;2023-06-14T14:03:53;7.82;;;2.67;;
18879;SDS011;9572;52.378;13.404;2023-06-14T14:06:22;7.90;;;2.80;;
18879;SDS011;9572;52.378;13.404;2023-06-14T14:08:49;4.30;;;3.10;;
18879;SDS011;9572;52.378;13.404;2023-06-14T14:11:17;7.63;;;3.10;;
18879;SDS011;9572;52.378;13.404;2023-06-14T14:13:44;7.22;;;3.15;;
18879;SDS011;9572;52.378;13.404;2023-06-14T14:16:12;5.45;;;2.80;;
18879;SDS011;9572;52.378;13.404;2023-06-14T14:18:39;5.32;;;2.95;;
18879;SDS011;9572;52.378;13.404;2023-06-14T14:21:06;11.75;;;3.00;;
18879;SDS011;9572;52.378;13.404;2023-06-14T14:23:36;8.73;;;2.95;;
18879;SDS011;9572;52.378;13.404;2023-06-14T14:26:02;7.28;;;2.83;;
18879;SDS011;9572;52.378;13.404;2023-06-14T14:28:29;6.53;;;2.88;;
18879;SDS011;9572;52.378;13.404;2023-06-14T14:30:57;6.15;;;2.80;;
18879;SDS011;9572;52.378;13.404;2023-06-14T14:33:24;8.48;;;3.40;;
18879;SDS011;9572;52.378;13.404;2023-06-14T14:35:51;7.90;;;2.67;;
18879;SDS011;9572;52.378;13.404;2023-06-14T14:38:18;7.85;;;2.88;;
18879;SDS011;9572;52.378;13.404;2023-06-14T14:40:46;6.57;;;3.60;;
18879;SDS011;9572;52.378;13.404;2023-06-14T14:43:13;9.45;;;3.05;;
18879;SDS011;9572;52.378;13.404;2023-06-14T14:45:40;4.53;;;2.80;;
18879;SDS011;9572;52.378;13.404;2023-06-14T14:48:07;7.55;;;3.13;;
18879;SDS011;9572;52.378;13.404;2023-06-14T14:50:34;5.97;;;3.00;;
18879;SDS011;9572;52.378;13.404;2023-06-14T14:53:01;5.60;;;2.90;;
18879;SDS011;9572;52.378;13.404;2023-06-14T14:55:28;6.05;;;3.08;;
18879;SDS011;9572;52.378;13.404;2023-06-14T14:57:57;5.40;;;3.40;;
18879;SDS011;9572;52.378;13.404;2023-06-14T15:00:23;7.78;;;3.13;;
18879;SDS011;9572;52.378;13.404;2023-06-14T15:02:50;4.55;;;3.00;;
18879;SDS011;9572;52.378;13.404;2023-06-14T15:05:17;9.25;;;2.83;;